Time;durP1;ratioP1;P1;durP2;ratioP2;P2;SDS_P1;SDS_P2;PMS_P1;PMS_P2;Temp;Humidity;BMP_temperature;BMP_pressure;BME280_temperature;BME280_humidity;BME280_pressure;Samples;Min_cycle;Max_cycle;Signal;HPM_P1;HPM_P2
2022/09/14 04:57:25;;;;;;;8.88;5.90;;;;;;;13.42;98.90;99670.16;6584024;26;247140;-88
2022/09/14 05:00:28;;;;;;;8.45;6.00;;;;;;;13.66;96.89;99670.19;6593863;27;32566;-88
2022/09/14 05:03:30;;;;;;;13.27;5.75;;;;;;;13.93;94.98;99669.09;6614500;27;35144;-88
2022/09/14 05:06:36;;;;;;;12.43;5.65;;;;;;;14.32;90.74;99660.00;6614625;27;33928;-88
2022/09/14 05:09:39;;;;;;;12.63;6.00;;;;;;;14.51;90.04;99667.41;6596061;27;34120;-88
2022/09/14 05:12:42;;;;;;;8.88;5.62;;;;;;;14.61;86.40;99672.87;6614096;27;33409;-88
2022/09/14 05:15:44;;;;;;;8.00;5.28;;;;;;;14.72;85.71;99677.41;6614487;27;34330;-88
2022/09/14 05:18:48;;;;;;;8.05;5.93;;;;;;;14.98;85.14;99677.19;6607820;26;34344;-88
2022/09/14 05:21:54;;;;;;;7.05;5.50;;;;;;;15.25;83.41;99678.59;6607121;26;35216;-89
2022/09/14 05:24:58;;;;;;;11.15;6.00;;;;;;;15.38;83.26;99689.16;6615188;26;35332;-89
2022/09/14 05:28:07;;;;;;;11.10;5.20;;;;;;;15.29;82.60;99686.25;6614986;26;35000;31
2022/09/14 05:31:11;;;;;;;10.75;5.80;;;;;;;15.36;82.80;99692.81;6530862;27;34380;-88
2022/09/14 05:34:16;;;;;;;11.25;6.00;;;;;;;15.37;82.66;99682.97;6536379;26;33139;-89
2022/09/14 05:48:36;;;;;;;7.07;5.50;;;;;;;15.20;82.13;99649.59;6605720;26;20056;-89
2022/09/14 05:55:14;;;;;;;12.60;5.90;;;;;;;15.51;80.26;99660.47;6525446;27;34485;-88
2022/09/14 06:02:02;;;;;;;11.82;6.12;;;;;;;15.59;81.09;99671.34;6581609;27;20390;-85
2022/09/14 06:05:06;;;;;;;14.77;6.60;;;;;;;15.54;80.46;99678.91;6577145;27;33780;-89
2022/09/14 06:08:09;;;;;;;11.60;6.30;;;;;;;15.53;81.24;99679.06;6577069;27;33938;-87
2022/09/14 06:11:14;;;;;;;14.43;6.93;;;;;;;15.68;81.17;99688.47;6578870;27;33804;-86
2022/09/14 06:14:18;;;;;;;10.77;6.12;;;;;;;15.85;80.67;99680.87;6580084;27;34176;-87
2022/09/14 06:17:21;;;;;;;8.57;6.22;;;;;;;16.06;79.43;99680.94;6579479;27;34952;-86
2022/09/14 06:20:24;;;;;;;10.32;6.00;;;;;;;16.26;77.51;99671.25;6578416;27;34265;-87
2022/09/14 06:23:45;;;;;;;;;;;;;;;16.43;77.82;99664.44;6577789;27;32771;-86
2022/09/14 06:26:48;;;;;;;9.65;6.25;;;;;;;16.60;77.11;99659.44;6577627;27;34940;-85
2022/09/14 06:29:52;;;;;;;11.38;6.28;;;;;;;16.94;75.58;99669.03;6578451;27;34229;-86
2022/09/14 06:32:55;;;;;;;14.85;6.68;;;;;;;16.89;74.54;99669.44;6578187;27;34109;-85
2022/09/14 06:36:00;;;;;;;13.20;6.10;;;;;;;16.59;75.71;99660.41;6579243;27;34754;-85
2022/09/14 06:39:04;;;;;;;10.15;5.78;;;;;;;16.60;75.49;99653.25;6578513;27;34008;-86
2022/09/14 06:42:06;;;;;;;9.05;6.18;;;;;;;16.43;76.84;99667.09;6578985;27;33653;-87
2022/09/14 06:45:10;;;;;;;7.43;5.60;;;;;;;16.65;76.33;99659.88;6579750;27;34256;-87
2022/09/14 06:48:12;;;;;;;8.85;5.87;;;;;;;16.71;76.53;99678.09;6577128;27;35170;-88
2022/09/14 06:51:18;;;;;;;11.48;5.70;;;;;;;16.90;76.32;99691.72;6579384;27;33745;-88
2022/09/14 06:54:22;;;;;;;12.55;6.50;;;;;;;16.85;75.90;99689.47;6578599;27;32480;-86
2022/09/14 06:57:25;;;;;;;11.68;6.97;;;;;;;16.78;76.81;99686.44;6580189;27;34877;-87
2022/09/14 07:00:27;;;;;;;10.32;6.50;;;;;;;16.70;77.72;99681.75;6588301;27;33479;-88
2022/09/14 07:03:46;;;;;;;25.45;8.73;;;;;;;16.66;80.04;99669.62;6607649;27;34173;-87
2022/09/14 07:06:49;;;;;;;22.50;8.65;;;;;;;16.61;81.55;99671.88;6605771;27;33668;-87
2022/09/14 07:09:51;;;;;;;16.50;8.50;;;;;;;16.21;85.88;99670.78;6586273;27;34744;-86
2022/09/14 07:12:54;;;;;;;17.08;8.88;;;;;;;16.00;88.97;99660.91;6586304;27;33285;-86
2022/09/14 07:15:57;;;;;;;18.00;7.87;;;;;;;15.69;92.77;99673.28;6605903;27;34122;-86
2022/09/14 07:19:02;;;;;;;14.82;7.70;;;;;;;15.44;98.58;99677.97;6605622;27;34572;-86
2022/09/14 07:22:05;;;;;;;16.80;7.68;;;;;;;15.57;98.75;99675.13;6607434;27;34062;-85
2022/09/14 07:25:09;;;;;;;15.88;7.65;;;;;;;15.66;98.76;99676.19;6607773;27;33654;-85
2022/09/14 07:28:12;;;;;;;12.02;7.53;;;;;;;15.50;100.00;99664.94;6616587;27;34677;-84
2022/09/14 07:31:31;;;;;;;13.80;7.68;;;;;;;15.63;96.10;99677.28;6610624;27;34146;-85
2022/09/14 07:42:18;;;;;;;14.95;7.97;;;;;;;15.87;100.00;99668.22;6600548;26;20039;-85
2022/09/14 07:45:21;;;;;;;15.55;7.60;;;;;;;16.05;96.51;99662.34;6606288;27;35204;-87
2022/09/14 07:48:26;;;;;;;16.80;8.45;;;;;;;16.21;91.60;99661.88;6607672;27;35199;-90
2022/09/14 07:51:31;;;;;;;13.15;7.95;;;;;;;16.23;94.57;99663.47;6606547;27;35450;-91
2022/09/14 07:54:34;;;;;;;12.73;8.68;;;;;;;16.32;93.56;99666.31;6607875;26;34116;-87
2022/09/14 07:57:38;;;;;;;9.35;7.30;;;;;;;16.28;91.67;99657.69;6606836;27;34426;-86
2022/09/14 08:01:11;;;;;;;9.18;7.37;;;;;;;16.33;89.53;99660.84;6606033;27;34939;-86
2022/09/14 08:04:14;;;;;;;10.23;7.25;;;;;;;16.54;88.24;99657.28;6586687;27;33120;-87
2022/09/14 08:07:16;;;;;;;13.43;8.27;;;;;;;16.47;87.75;99666.84;6606603;27;34284;-87
2022/09/14 08:10:19;;;;;;;10.57;7.50;;;;;;;16.39;89.56;99668.34;6609070;27;33670;-85
2022/09/14 08:13:21;;;;;;;13.52;8.05;;;;;;;16.59;89.55;99648.88;6605260;27;34412;-85
2022/09/14 08:16:26;;;;;;;14.38;7.80;;;;;;;16.80;91.41;99648.84;6605698;27;35103;-86
2022/09/14 08:19:29;;;;;;;12.00;7.82;;;;;;;17.13;91.67;99638.81;6606229;27;33645;-85
2022/09/14 08:26:10;;;;;;;16.65;9.13;;;;;;;17.00;91.39;99630.97;6609511;26;20067;-88
2022/09/14 08:29:14;;;;;;;13.98;8.90;;;;;;;16.95;92.16;99643.97;6609927;27;34143;-89
2022/09/14 08:32:17;;;;;;;17.80;8.45;;;;;;;16.86;90.40;99648.28;6588028;27;32815;-89
2022/09/14 08:35:20;;;;;;;11.57;8.57;;;;;;;16.85;90.11;99638.56;6607038;27;33582;-89
2022/09/14 08:38:42;;;;;;;15.07;8.77;;;;;;;16.94;89.91;99645.78;6586628;27;32706;-88
2022/09/14 08:41:50;;;;;;;11.40;8.20;;;;;;;17.30;89.87;99636.47;6606077;27;34027;-89
2022/09/14 08:45:03;;;;;;;16.62;8.45;;;;;;;17.58;87.81;99640.16;6610286;26;33677;-87
2022/09/14 08:48:34;;;;;;;18.62;9.93;;;;;;;18.00;84.98;99622.09;6567957;26;20087;-88
2022/09/14 08:51:36;;;;;;;11.00;8.60;;;;;;;18.36;82.62;99618.78;6534379;27;33510;-86
2022/09/14 08:54:38;;;;;;;12.43;8.73;;;;;;;18.83;78.92;99621.44;6552658;27;33475;-87
2022/09/14 08:57:49;;;;;;;12.40;8.70;;;;;;;19.62;78.18;99618.25;6552137;27;34448;-88
2022/09/14 09:01:15;;;;;;;14.35;8.30;;;;;;;20.17;73.34;99619.06;6551738;27;33488;-87
2022/09/14 09:04:23;;;;;;;14.35;8.50;;;;;;;20.43;73.45;99617.41;6551467;27;33898;-87
2022/09/14 09:07:47;;;;;;;15.32;8.57;;;;;;;20.99;72.20;99617.00;6532822;27;33268;-86
2022/09/14 09:10:53;;;;;;;12.48;8.68;;;;;;;21.23;69.88;99618.94;6532315;27;32347;-87
2022/09/14 09:13:57;;;;;;;11.70;8.43;;;;;;;21.41;68.16;99621.50;6554275;27;34653;-86
2022/09/14 09:17:32;;;;;;;15.75;9.23;;;;;;;21.26;68.35;99617.75;6552236;27;34726;-86
2022/09/14 09:20:39;;;;;;;12.80;9.38;;;;;;;20.81;71.00;99617.09;6534951;27;33255;-86
2022/09/14 09:23:42;;;;;;;15.77;9.23;;;;;;;20.92;70.62;99624.88;6554277;27;34172;-85
2022/09/14 09:26:49;;;;;;;15.27;9.23;;;;;;;21.24;68.38;99627.87;6594204;26;34297;-85
2022/09/14 09:29:52;;;;;;;18.10;8.93;;;;;;;21.49;68.91;99644.97;6608644;26;34093;-86
2022/09/14 09:33:01;;;;;;;11.45;9.02;;;;;;;21.49;66.86;99646.81;6584620;26;32875;-86
2022/09/14 10:37:31;;;;;;;12.05;8.70;;;;;;;23.50;61.11;99636.31;6608608;26;20063;-86
2022/09/14 10:52:02;;;;;;;11.40;7.95;;;;;;;22.72;62.76;99622.63;6607820;27;20062;-87
2022/09/14 10:55:33;;;;;;;16.02;8.30;;;;;;;23.07;63.55;99630.44;6581544;26;33330;-86
2022/09/14 10:58:49;;;;;;;;;;;;;;;23.28;63.26;99630.66;6582223;26;34141;-87
2022/09/14 11:02:20;;;;;;;11.65;7.87;;;;;;;23.22;62.58;99638.62;6583902;26;34374;-88
2022/09/14 11:05:29;;;;;;;11.43;8.07;;;;;;;22.84;64.03;99631.22;6580843;26;34579;-88
2022/09/14 11:08:44;;;;;;;12.63;7.53;;;;;;;22.71;65.33;99626.34;6605176;26;34447;-86
2022/09/14 11:12:21;;;;;;;9.82;6.85;;;;;;;23.18;64.05;99623.78;6609667;27;34934;-87
2022/09/14 11:15:43;;;;;;;9.93;7.32;;;;;;;23.25;63.91;99630.16;6601878;26;34271;-88
2022/09/14 11:18:56;;;;;;;10.52;7.05;;;;;;;22.97;64.88;99626.09;6607077;27;34945;-88
2022/09/14 11:26:21;;;;;;;8.38;6.65;;;;;;;22.85;66.34;99614.81;6599230;26;20071;-87
2022/09/14 11:29:30;;;;;;;9.15;7.10;;;;;;;22.32;68.64;99617.97;6455740;27;33203;-87
2022/09/14 11:36:40;;;;;;;9.48;6.93;;;;;;;22.53;68.74;99611.19;6476207;27;20061;-88
2022/09/14 11:43:55;;;;;;;10.00;7.18;;;;;;;22.59;69.01;99601.56;6469878;27;20081;-87
2022/09/14 11:47:06;;;;;;;10.55;7.32;;;;;;;22.60;69.48;99603.25;6434411;27;33955;-87
2022/09/14 11:50:17;;;;;;;;;;;;;;;22.71;69.04;99593.91;6440121;27;34505;-88
2022/09/14 11:53:23;;;;;;;11.57;7.32;;;;;;;22.79;70.13;99593.91;6435326;27;33887;-87
2022/09/14 11:56:28;;;;;;;8.13;6.78;;;;;;;22.83;69.06;99586.28;6437440;27;35042;-86
2022/09/14 12:06:56;;;;;;;13.93;7.25;;;;;;;23.09;67.97;99594.06;6574303;26;20059;-88
2022/09/14 12:13:44;;;;;;;11.75;6.62;;;;;;;23.52;66.79;99585.53;6580380;27;20060;-88
2022/09/14 12:17:23;;;;;;;10.70;6.53;;;;;;;23.67;66.70;99584.75;6580217;27;34537;-87
2022/09/14 12:21:24;;;;;;;13.13;6.85;;;;;;;23.61;67.00;99580.06;6547488;27;20048;-87
2022/09/14 12:24:27;;;;;;;12.90;6.10;;;;;;;23.49;67.30;99566.13;6552326;27;33871;-87
2022/09/14 12:27:41;;;;;;;11.57;6.95;;;;;;;23.89;66.08;99568.66;6525850;27;34800;-87
2022/09/14 12:30:44;;;;;;;11.57;6.75;;;;;;;23.76;66.31;99558.44;6552994;27;32820;-87
2022/09/14 12:34:32;;;;;;;6.78;6.07;;;;;;;23.83;65.89;99560.25;6572644;27;33973;-88
2022/09/14 12:37:40;;;;;;;8.80;5.80;;;;;;;23.86;66.24;99561.75;6608967;27;35365;-89
2022/09/14 12:40:43;;;;;;;17.00;6.65;;;;;;;23.83;66.48;99554.84;6588089;26;32731;-89
2022/09/14 12:54:42;;;;;;;8.75;6.60;;;;;;;24.53;63.98;99537.50;6600287;26;35037;-89
2022/09/14 12:58:02;;;;;;;10.85;7.20;;;;;;;24.59;62.87;99535.94;6602219;26;34562;-88
2022/09/14 13:01:37;;;;;;;10.07;7.62;;;;;;;24.35;63.97;99514.34;6606370;27;34708;-88
2022/09/14 13:04:41;;;;;;;11.27;7.43;;;;;;;24.30;63.84;99505.13;6589579;27;33140;-89
2022/09/14 13:07:44;;;;;;;8.57;6.78;;;;;;;23.72;65.97;99505.72;6589286;27;32316;-89
2022/09/14 13:10:49;;;;;;;11.20;6.80;;;;;;;24.02;65.17;99497.59;6608645;27;33909;-89
2022/09/14 13:13:54;;;;;;;8.88;6.30;;;;;;;24.28;64.00;99499.88;6607672;27;34685;-89
2022/09/14 13:16:59;;;;;;;10.15;6.32;;;;;;;24.45;63.29;99497.78;6588870;27;34606;-88
2022/09/14 13:20:04;;;;;;;11.55;6.55;;;;;;;24.33;63.70;99502.00;6588474;27;33475;-88
2022/09/14 13:23:26;;;;;;;7.90;6.18;;;;;;;24.35;63.86;99498.09;6609905;27;34201;-88
2022/09/14 13:26:30;;;;;;;8.32;5.28;;;;;;;24.25;64.08;99502.12;6587522;27;34362;-87
2022/09/14 13:29:33;;;;;;;10.45;6.43;;;;;;;24.52;64.91;99502.47;6587137;27;33956;-87
2022/09/14 13:32:41;;;;;;;7.07;5.18;;;;;;;24.26;64.36;99492.97;6605793;27;34026;-87
2022/09/14 13:35:53;;;;;;;13.13;5.45;;;;;;;24.39;63.81;99506.69;6607048;27;34109;-86
2022/09/14 13:39:01;;;;;;;8.05;4.95;;;;;;;24.47;63.58;99509.31;6586647;27;32955;-87
2022/09/14 13:42:04;;;;;;;11.93;5.15;;;;;;;24.43;64.00;99509.88;6607787;27;33932;-87
2022/09/14 13:45:12;;;;;;;4.87;4.10;;;;;;;24.28;63.71;99502.59;6620701;27;34875;-87
2022/09/14 13:48:17;;;;;;;7.30;4.50;;;;;;;24.41;63.67;99501.94;6588396;27;33701;-88
2022/09/14 13:51:26;;;;;;;5.62;5.03;;;;;;;24.65;63.07;99499.94;6606351;27;33879;-87
2022/09/14 13:54:29;;;;;;;7.72;5.28;;;;;;;24.59;63.43;99509.66;6606890;27;34646;-87
2022/09/14 13:57:31;;;;;;;7.37;4.97;;;;;;;24.60;63.88;99505.91;6606232;27;33534;-86
2022/09/14 14:00:52;;;;;;;7.35;4.53;;;;;;;24.45;63.63;99495.09;6606889;27;33812;-86
2022/09/14 14:03:57;;;;;;;8.45;5.53;;;;;;;24.42;64.43;99489.19;6588220;27;34868;-86
2022/09/14 14:07:04;;;;;;;9.82;5.45;;;;;;;24.53;63.87;99482.47;6614828;27;33878;-86
2022/09/14 14:10:41;;;;;;;8.63;4.45;;;;;;;24.69;63.29;99482.22;6589223;27;33273;-86
2022/09/14 14:13:43;;;;;;;6.22;5.35;;;;;;;24.76;63.50;99476.91;6601461;27;34718;-87
2022/09/14 14:17:11;;;;;;;7.35;5.10;;;;;;;24.32;64.22;99470.53;6602659;27;34831;-87
2022/09/14 14:20:36;;;;;;;8.48;5.50;;;;;;;24.07;65.08;99454.56;6603496;27;33890;-88
2022/09/14 14:23:41;;;;;;;8.05;5.10;;;;;;;23.98;65.12;99463.81;6624097;27;34992;-87
2022/09/14 14:27:03;;;;;;;5.20;4.72;;;;;;;23.78;65.93;99459.78;6602102;26;33757;-87
2022/09/14 14:30:16;;;;;;;14.43;5.18;;;;;;;23.83;66.55;99462.75;6624158;26;36057;-87
2022/09/14 14:33:19;;;;;;;6.12;4.60;;;;;;;24.04;66.06;99465.78;6603088;27;34451;-88
2022/09/14 14:36:22;;;;;;;7.18;5.07;;;;;;;24.15;66.12;99454.50;6605691;26;33646;-88
2022/09/14 14:39:24;;;;;;;8.68;4.55;;;;;;;24.02;65.62;99444.28;6604494;26;33337;-87
2022/09/14 14:42:27;;;;;;;6.10;5.05;;;;;;;24.02;65.39;99441.56;6599984;27;34146;-87
2022/09/14 14:45:31;;;;;;;6.28;5.10;;;;;;;23.67;67.38;99434.00;6604338;27;33833;-87
2022/09/14 14:48:38;;;;;;;8.10;4.87;;;;;;;23.87;66.87;99429.87;6605104;27;34010;-87
2022/09/14 14:51:41;;;;;;;6.05;4.85;;;;;;;23.99;66.99;99430.28;6606566;27;33953;-87
2022/09/14 14:54:45;;;;;;;6.43;4.78;;;;;;;24.13;65.78;99415.91;6611423;27;33966;-87
2022/09/14 14:57:49;;;;;;;9.27;4.80;;;;;;;24.06;65.94;99423.06;6587150;27;33684;-86
2022/09/14 15:00:53;;;;;;;5.22;4.72;;;;;;;23.57;67.96;99425.31;6586220;27;32982;-87
2022/09/14 15:03:55;;;;;;;6.82;4.53;;;;;;;23.48;69.32;99438.06;6606506;27;33938;-86
2022/09/14 15:06:58;;;;;;;7.25;4.70;;;;;;;23.45;68.39;99437.59;6603748;27;33956;-87
2022/09/14 15:10:01;;;;;;;5.05;4.40;;;;;;;23.21;70.08;99429.50;6584696;27;33037;-87
2022/09/14 15:13:05;;;;;;;6.53;5.47;;;;;;;23.23;70.02;99429.34;6586727;27;32892;-87
2022/09/14 15:16:08;;;;;;;7.20;4.80;;;;;;;23.07;70.03;99416.78;6606570;27;34230;-86
2022/09/14 15:19:11;;;;;;;9.00;4.60;;;;;;;23.14;70.50;99410.44;6585572;27;33168;-87
2022/09/14 15:22:14;;;;;;;9.38;4.55;;;;;;;23.14;70.77;99405.03;6606183;27;34011;-86
2022/09/14 15:25:19;;;;;;;7.10;4.93;;;;;;;23.28;70.31;99392.56;6605229;27;34020;-86
2022/09/14 15:28:21;;;;;;;7.30;5.25;;;;;;;23.24;70.62;99396.66;6605763;27;34514;-86
2022/09/14 15:31:24;;;;;;;7.15;4.93;;;;;;;23.29;71.78;99375.31;6605857;27;34657;-86
2022/09/14 15:34:27;;;;;;;8.13;4.55;;;;;;;23.25;71.19;99384.00;6587604;27;32375;-87
2022/09/14 15:37:29;;;;;;;6.50;4.15;;;;;;;23.32;70.24;99378.72;6588854;27;32486;-87
2022/09/14 15:40:32;;;;;;;6.57;4.53;;;;;;;23.19;70.79;99373.91;6599049;27;34398;-87
2022/09/14 15:43:35;;;;;;;6.18;4.32;;;;;;;23.18;71.01;99373.06;6615330;27;34869;-87
2022/09/14 15:46:54;;;;;;;7.28;4.20;;;;;;;23.27;71.43;99366.56;6586563;27;33075;-90
2022/09/14 15:49:57;;;;;;;9.37;5.07;;;;;;;23.26;71.13;99355.91;6606519;26;34576;-89
